createdAt,value
2023-03-19T01:14:05.113Z,5.68
2023-03-19T01:15:11.498Z,6.40
2023-03-19T01:16:17.596Z,6.50
2023-03-19T01:17:20.567Z,6.97
2023-03-19T02:51:31.766Z,7.50
2023-03-19T02:52:39.334Z,7.25
2023-03-19T02:53:46.287Z,6.63
2023-03-19T02:55:02.318Z,6.10
2023-03-19T02:56:10.422Z,5.80
2023-03-19T02:57:14.838Z,6.28
2023-03-19T02:58:24.221Z,5.65
2023-03-19T02:59:27.412Z,5.60
2023-03-19T03:00:30.057Z,5.82
2023-03-19T03:01:37.609Z,6.55
2023-03-19T03:02:43.215Z,6.05
2023-03-19T04:52:09.426Z,7.53
2023-03-19T04:53:13.691Z,7.28
2023-03-19T04:54:22.545Z,7.78
2023-03-19T05:03:17.794Z,8.50
2023-03-19T05:04:28.204Z,8.10
2023-03-19T05:48:02.672Z,8.68
2023-03-19T05:49:10.750Z,8.32
2023-03-19T05:50:14.384Z,8.20
2023-03-19T05:51:29.269Z,7.93
2023-03-19T05:52:37.311Z,8.02
2023-03-19T05:53:48.196Z,8.27
2023-03-19T05:55:31.245Z,7.60
2023-03-19T05:56:44.464Z,7.93
2023-03-19T05:58:11.061Z,8.38
2023-03-19T05:59:14.275Z,8.85
2023-03-19T06:00:28.493Z,8.43
2023-03-19T06:01:40.981Z,8.30
2023-03-19T06:02:52.682Z,7.63
2023-03-19T06:04:23.045Z,7.13
2023-03-19T06:05:26.954Z,15.23
2023-03-19T06:06:40.720Z,17.33
2023-03-19T06:07:46.506Z,8.45
2023-03-19T06:09:04.170Z,7.95
2023-03-19T06:10:13.885Z,7.63
2023-03-19T06:11:16.483Z,7.47
2023-03-19T06:12:49.308Z,8.20
2023-03-19T06:14:12.308Z,7.72
2023-03-19T06:15:45.810Z,7.45
2023-03-19T06:16:58.972Z,7.72
2023-03-19T06:18:04.607Z,6.78
2023-03-19T06:19:16.322Z,6.50
2023-03-19T06:21:44.186Z,6.45
2023-03-19T06:22:53.871Z,6.55
2023-03-19T06:27:52.235Z,8.05
2023-03-19T06:33:17.890Z,6.28
2023-03-19T06:34:36.324Z,7.00
2023-03-19T06:35:52.996Z,7.20
2023-03-19T06:37:17.449Z,7.63
2023-03-19T06:38:22.402Z,7.03
2023-03-19T06:41:33.610Z,7.88
2023-03-19T06:46:26.783Z,7.47
2023-03-19T06:50:35.694Z,8.07
2023-03-19T06:51:47.608Z,7.63
2023-03-19T06:54:27.254Z,7.88
2023-03-19T06:55:43.815Z,8.32
2023-03-19T07:22:43.731Z,6.68
2023-03-19T07:26:47.778Z,10.55
2023-03-19T07:27:54.866Z,8.57
2023-03-19T07:28:58.346Z,7.85
2023-03-19T07:30:13.364Z,7.03
2023-03-19T07:31:49.217Z,8.30
2023-03-19T07:32:51.642Z,7.68
2023-03-19T07:33:54.832Z,6.97
2023-03-19T07:34:56.862Z,7.07
2023-03-19T07:35:59.035Z,7.20
2023-03-19T07:37:01.545Z,6.95
2023-03-19T07:38:03.787Z,7.38
2023-03-19T07:39:06.167Z,7.45
2023-03-19T07:40:10.862Z,7.35
2023-03-19T07:41:12.916Z,7.50
2023-03-19T07:42:15.399Z,6.57
2023-03-19T07:44:55.690Z,7.10
2023-03-19T07:45:58.646Z,7.38
2023-03-19T07:47:00.921Z,7.28
2023-03-19T07:48:03.970Z,7.20
2023-03-19T07:49:06.065Z,7.82
2023-03-19T07:50:08.947Z,7.43
2023-03-19T07:51:11.052Z,7.05
2023-03-19T07:52:15.154Z,6.30
2023-03-19T07:53:17.523Z,5.72
2023-03-19T07:54:19.735Z,6.22
2023-03-19T07:55:25.233Z,6.43
2023-03-19T07:56:29.254Z,5.68
2023-03-19T07:57:35.764Z,6.97
2023-03-19T07:58:39.891Z,6.68
2023-03-19T07:59:42.463Z,6.15
2023-03-19T08:00:45.702Z,6.32
2023-03-19T08:01:48.387Z,6.35
2023-03-19T08:02:50.867Z,6.65
2023-03-19T08:03:52.965Z,7.03
2023-03-19T08:04:56.203Z,6.85
2023-03-19T08:05:58.142Z,7.85
2023-03-19T08:07:00.830Z,7.85
2023-03-19T08:08:02.787Z,9.13
2023-03-19T08:09:05.872Z,8.88
2023-03-19T08:10:08.885Z,9.20
2023-03-19T08:11:11.052Z,9.40
2023-03-19T08:12:14.124Z,9.40
2023-03-19T08:13:16.865Z,8.73
2023-03-19T08:17:35.294Z,9.02
2023-03-19T08:19:08.487Z,9.27
2023-03-19T08:23:30.695Z,8.05
2023-03-19T08:37:12.908Z,10.13
2023-03-19T08:38:57.540Z,9.20
2023-03-19T08:43:47.651Z,10.10
2023-03-19T08:49:05.736Z,10.90
2023-03-19T08:51:43.633Z,10.93
2023-03-19T08:53:51.286Z,11.30
2023-03-19T08:55:50.147Z,12.65
2023-03-19T09:01:49.862Z,13.65
2023-03-19T09:03:21.910Z,13.65
2023-03-19T09:04:38.558Z,13.43
2023-03-19T09:06:14.223Z,13.68
2023-03-19T09:09:14.676Z,13.15
2023-03-19T09:13:22.988Z,12.52
2023-03-19T09:16:19.239Z,10.88
2023-03-19T09:17:45.193Z,10.32
2023-03-19T09:18:51.524Z,10.27
2023-03-19T09:20:41.542Z,9.48
2023-03-19T09:22:28.792Z,8.95
2023-03-19T09:29:56.966Z,9.75
2023-03-19T09:31:27.237Z,9.70
2023-03-19T09:32:34.522Z,9.85
2023-03-19T09:33:50.101Z,9.77
2023-03-19T09:34:57.594Z,10.05
2023-03-19T09:36:08.818Z,10.38
2023-03-19T09:37:13.384Z,8.80
2023-03-19T09:38:20.681Z,9.48
2023-03-19T09:39:30.365Z,8.95
2023-03-19T09:43:02.003Z,7.78
2023-03-19T09:44:42.408Z,8.15
2023-03-19T09:45:47.122Z,7.28
2023-03-19T09:47:31.575Z,7.60
2023-03-19T09:48:58.058Z,8.02
2023-03-19T09:50:24.270Z,7.82
2023-03-19T09:51:59.055Z,8.48
2023-03-19T09:53:27.504Z,11.07
2023-03-19T09:58:20.816Z,10.30
2023-03-19T10:00:15.215Z,11.60
2023-03-19T10:01:51.591Z,11.52
2023-03-19T10:03:45.301Z,11.52
2023-03-19T10:05:28.462Z,12.15
2023-03-19T10:06:39.509Z,11.73
2023-03-19T10:08:06.119Z,11.68
2023-03-19T10:09:43.351Z,11.93
2023-03-19T10:11:17.618Z,10.57
2023-03-19T10:14:39.266Z,7.57
2023-03-19T10:15:47.658Z,7.10
2023-03-19T10:17:05.877Z,6.65
2023-03-19T10:18:30.557Z,6.55
2023-03-19T10:20:04.396Z,6.97
2023-03-19T10:21:47.453Z,7.28
2023-03-19T10:23:09.243Z,7.07
2023-03-19T10:24:23.568Z,7.05
2023-03-19T10:25:41.781Z,7.07
2023-03-19T10:26:51.449Z,7.43
2023-03-19T10:28:08.032Z,8.70
2023-03-19T10:29:29.367Z,7.80
2023-03-19T10:30:38.577Z,7.80
2023-03-19T10:32:08.052Z,7.75
2023-03-19T10:33:26.780Z,7.72
2023-03-19T10:34:32.940Z,7.75
2023-03-19T10:35:57.896Z,8.05
2023-03-19T10:37:25.362Z,8.43
2023-03-19T10:38:32.581Z,8.00
2023-03-19T10:39:51.307Z,7.72
2023-03-19T10:41:33.186Z,8.75
2023-03-19T10:43:07.057Z,8.93
2023-03-19T10:44:37.721Z,9.25
2023-03-19T10:46:30.058Z,8.88
2023-03-19T10:47:38.747Z,9.23
2023-03-19T10:48:48.355Z,8.82
2023-03-19T10:50:07.401Z,9.38
2023-03-19T10:51:23.546Z,9.30
2023-03-19T10:52:34.158Z,9.23
2023-03-19T10:54:20.503Z,9.40
2023-03-19T10:55:30.485Z,9.30
2023-03-19T10:56:36.882Z,9.63
2023-03-19T10:57:45.119Z,9.50
2023-03-19T11:01:51.687Z,9.80
2023-03-19T11:06:43.053Z,9.20
2023-03-19T11:10:28.869Z,9.55
2023-03-19T11:14:14.071Z,9.52
2023-03-19T11:18:03.758Z,9.68
2023-03-19T11:19:24.854Z,10.20
2023-03-19T11:20:39.142Z,9.10
2023-03-19T11:21:46.143Z,9.73
2023-03-19T11:23:42.483Z,10.18
2023-03-19T11:34:57.560Z,9.90
2023-03-19T11:36:15.994Z,9.57
2023-03-19T11:37:43.909Z,9.18
2023-03-19T11:39:19.397Z,9.07
2023-03-19T11:41:11.005Z,9.15
2023-03-19T11:42:56.574Z,9.05
2023-03-19T11:44:24.129Z,9.27
2023-03-19T11:45:56.722Z,8.60
2023-03-19T11:48:21.362Z,9.07
2023-03-19T11:50:41.955Z,7.63
2023-03-19T11:52:52.041Z,8.75
2023-03-19T11:54:32.978Z,8.55
2023-03-19T11:56:24.112Z,7.78
2023-03-19T11:58:19.480Z,8.98
2023-03-19T12:00:14.765Z,7.93
2023-03-19T12:07:18.794Z,6.93
2023-03-19T12:09:15.652Z,7.90
2023-03-19T12:20:39.412Z,7.15
2023-03-19T12:22:27.823Z,7.93
2023-03-19T12:24:02.498Z,7.82
2023-03-19T12:25:43.444Z,8.10
2023-03-19T12:36:58.878Z,6.97
2023-03-19T12:38:40.454Z,6.82
2023-03-19T12:40:06.160Z,7.30
2023-03-19T12:41:47.013Z,7.07
2023-03-19T12:43:04.841Z,6.43
2023-03-19T12:45:07.530Z,6.50
2023-03-19T12:46:49.080Z,6.68
2023-03-19T12:48:11.533Z,7.20
2023-03-19T12:49:41.759Z,8.10
2023-03-19T12:51:24.779Z,7.72
2023-03-19T12:54:48.769Z,7.30
2023-03-19T12:56:38.845Z,6.28
2023-03-19T13:00:22.405Z,6.32
2023-03-19T13:02:56.156Z,6.28
2023-03-19T13:04:14.275Z,6.35
2023-03-19T13:05:34.550Z,6.35
2023-03-19T13:06:57.879Z,6.65
2023-03-19T13:08:11.038Z,8.23
2023-03-19T13:12:21.901Z,6.85
2023-03-19T13:14:03.128Z,7.03
2023-03-19T13:15:36.594Z,7.18
2023-03-19T13:17:00.605Z,6.63
2023-03-19T13:19:08.820Z,7.55
2023-03-19T13:20:23.547Z,7.35
2023-03-19T13:21:36.422Z,6.63
2023-03-19T13:22:41.838Z,6.65
2023-03-19T13:23:50.790Z,7.40
2023-03-19T13:25:00.701Z,7.35
2023-03-19T13:26:10.564Z,7.97
2023-03-19T13:27:30.300Z,7.47
2023-03-19T13:28:36.366Z,7.57
2023-03-19T13:30:08.466Z,6.97
2023-03-19T13:31:27.643Z,7.13
2023-03-19T13:32:41.515Z,7.82
2023-03-19T13:34:09.707Z,7.63
2023-03-19T13:35:27.794Z,6.95
2023-03-19T13:36:39.928Z,7.43
2023-03-19T13:37:44.514Z,7.80
2023-03-19T13:38:56.619Z,7.55
2023-03-19T13:40:05.815Z,7.28
2023-03-19T13:41:33.260Z,8.05
2023-03-19T13:42:43.448Z,7.63
2023-03-19T13:43:54.242Z,7.15
2023-03-19T13:45:32.339Z,7.38
2023-03-19T13:46:41.820Z,7.63
2023-03-19T13:47:45.735Z,6.70
2023-03-19T13:48:53.766Z,7.43
2023-03-19T13:50:45.684Z,7.13
2023-03-19T13:52:05.306Z,7.72
2023-03-19T13:53:37.443Z,8.88
2023-03-19T13:54:46.161Z,7.63
2023-03-19T13:56:02.952Z,7.53
2023-03-19T13:57:18.468Z,7.32
2023-03-19T13:58:46.097Z,8.00
2023-03-19T13:59:51.019Z,7.40
2023-03-19T14:00:59.194Z,6.97
2023-03-19T14:02:27.350Z,7.00
2023-03-19T14:03:37.509Z,6.85
2023-03-19T14:04:54.169Z,7.50
2023-03-19T14:06:02.467Z,7.38
2023-03-19T14:07:23.153Z,7.43
2023-03-19T14:08:34.124Z,7.05
2023-03-19T14:10:02.586Z,7.80
2023-03-19T14:11:08.953Z,7.43
2023-03-19T14:12:22.582Z,7.47
2023-03-19T14:13:34.982Z,7.43
2023-03-19T14:15:20.538Z,7.53
2023-03-19T14:16:30.352Z,7.30
2023-03-19T14:18:04.259Z,7.30
2023-03-19T14:19:12.786Z,7.53
2023-03-19T14:20:24.699Z,7.53
2023-03-19T14:21:47.282Z,7.15
2023-03-19T14:22:59.038Z,7.50
2023-03-19T14:24:56.679Z,7.20
2023-03-19T14:26:27.603Z,7.40
2023-03-19T14:27:33.639Z,7.28
2023-03-19T14:28:46.306Z,7.10
2023-03-19T14:29:51.576Z,7.53
2023-03-19T14:30:58.555Z,7.40
2023-03-19T14:32:11.093Z,8.13
2023-03-19T14:33:30.138Z,8.00
2023-03-19T14:34:43.870Z,7.10
2023-03-19T14:35:49.131Z,7.30
2023-03-19T14:37:17.811Z,7.05
2023-03-19T14:38:38.180Z,7.85
2023-03-19T14:39:46.567Z,7.78
2023-03-19T14:40:53.763Z,8.48
2023-03-19T14:42:14.313Z,8.13
2023-03-19T14:43:28.622Z,8.10
2023-03-19T14:45:12.821Z,7.88
2023-03-19T14:46:24.544Z,6.60
2023-03-19T14:47:53.037Z,7.63
2023-03-19T14:49:21.167Z,7.38
2023-03-19T14:50:55.074Z,7.00
2023-03-19T14:52:26.043Z,7.75
2023-03-19T14:53:59.094Z,7.88
2023-03-19T14:55:03.929Z,7.35
2023-03-19T14:56:23.571Z,7.63
2023-03-19T14:57:37.008Z,7.35
2023-03-19T14:58:51.957Z,7.70
2023-03-19T14:59:55.142Z,7.53
2023-03-19T15:00:59.582Z,7.38
2023-03-19T15:05:59.772Z,7.38
2023-03-19T15:11:21.709Z,7.72
2023-03-19T15:12:46.397Z,8.57
2023-03-19T15:14:15.149Z,7.20
2023-03-19T15:15:28.595Z,8.32
2023-03-19T15:16:48.993Z,8.27
2023-03-19T15:18:04.138Z,8.30
2023-03-19T15:19:12.297Z,9.20
2023-03-19T15:20:29.132Z,7.80
2023-03-19T15:21:35.357Z,9.77
2023-03-19T15:22:38.654Z,9.02
2023-03-19T15:23:45.846Z,9.02
2023-03-19T15:24:53.530Z,8.40
2023-03-19T15:26:05.049Z,8.40
2023-03-19T15:27:23.536Z,9.52
2023-03-19T15:28:28.531Z,8.93
2023-03-19T15:29:37.841Z,8.57
2023-03-19T15:30:53.909Z,10.20
2023-03-19T15:32:05.301Z,9.20
2023-03-19T15:33:39.481Z,8.90
2023-03-19T15:35:05.724Z,8.93
2023-03-19T15:36:34.928Z,9.57
2023-03-19T15:37:51.193Z,10.10
2023-03-19T15:39:18.741Z,9.25
2023-03-19T15:40:34.408Z,9.82
2023-03-19T15:41:45.060Z,9.60
2023-03-19T15:43:01.500Z,9.27
2023-03-19T15:44:13.737Z,9.80
2023-03-19T15:45:24.639Z,10.13
2023-03-19T15:46:32.895Z,9.77
2023-03-19T15:47:47.859Z,10.38
2023-03-19T15:49:11.740Z,8.80
2023-03-19T15:50:22.279Z,9.02
2023-03-19T15:51:28.852Z,15.00
2023-03-19T15:52:41.686Z,12.48
2023-03-19T15:53:52.948Z,9.80
2023-03-19T15:55:05.427Z,9.83
2023-03-19T15:56:15.924Z,9.90
2023-03-19T15:57:34.364Z,10.05
2023-03-19T15:58:42.048Z,10.10
2023-03-19T15:59:47.888Z,9.73
2023-03-19T16:00:59.771Z,10.45
2023-03-19T16:02:29.740Z,17.42
2023-03-19T16:03:42.701Z,14.80
2023-03-19T16:25:30.445Z,10.73
2023-03-19T16:26:48.304Z,10.48
2023-03-19T16:27:52.496Z,9.75
2023-03-19T16:29:05.936Z,10.10
2023-03-19T16:30:22.734Z,10.20
2023-03-19T16:31:32.216Z,8.68
2023-03-19T16:32:37.221Z,9.38
2023-03-19T16:33:39.166Z,9.52
2023-03-19T16:34:49.548Z,9.63
2023-03-19T16:35:54.135Z,10.38
2023-03-19T16:37:00.297Z,9.75
2023-03-19T16:38:43.732Z,10.18
2023-03-19T16:39:57.231Z,10.30
2023-03-19T16:41:14.548Z,10.20
2023-03-19T16:42:37.125Z,10.73
2023-03-19T16:43:46.406Z,12.07
2023-03-19T16:44:50.451Z,11.07
2023-03-19T16:46:09.689Z,11.30
2023-03-19T16:47:18.352Z,10.55
2023-03-19T16:48:30.718Z,10.60
2023-03-19T16:49:42.755Z,10.07
2023-03-19T16:50:48.732Z,10.60
2023-03-19T16:51:55.386Z,10.10
2023-03-19T16:53:16.977Z,11.10
2023-03-19T16:54:36.347Z,10.57
2023-03-19T16:55:41.512Z,9.60
2023-03-19T16:56:43.675Z,10.15
2023-03-19T16:57:49.032Z,9.48
2023-03-19T16:58:56.714Z,9.75
2023-03-19T16:59:59.194Z,10.20
2023-03-19T17:01:02.142Z,9.93
2023-03-19T17:02:16.837Z,10.77
2023-03-19T17:03:21.468Z,13.52
2023-03-19T17:04:25.880Z,10.27
2023-03-19T17:05:35.549Z,10.32
2023-03-19T17:06:38.132Z,10.70
2023-03-19T17:07:52.794Z,10.98
2023-03-19T17:10:31.793Z,10.68
2023-03-19T17:11:42.469Z,9.80
2023-03-19T17:12:46.891Z,9.90
2023-03-19T17:13:49.349Z,11.15
2023-03-19T17:14:52.785Z,16.30
2023-03-19T17:15:57.418Z,12.95
2023-03-19T17:16:59.453Z,11.77
2023-03-19T17:18:04.063Z,16.48
2023-03-19T17:19:18.362Z,17.15
2023-03-19T17:20:44.681Z,18.85
2023-03-19T17:21:50.803Z,14.05
2023-03-19T17:23:01.546Z,13.98
2023-03-19T17:32:07.098Z,14.05
2023-03-19T17:33:37.421Z,11.77
